Providence, RI

19:44 EDT le 27 mai 2015 (GMT -0400)
College Hill | | Change Station
CLOSE
Current Station
Stations météorologiques personnelles
Location: Providence, RI
Altitude: 81 ft
Stations météo à proximité

Alt. 81 ft 41.82 °N, 71.40 °W | Updated 35 seconds ago

Nuageux
Nuageux
71.2 ° F
Paraît 74 ° F
N
1.0
Vent Variable Vent de OSO
Gusts 1.0 mph

Aujourd'hui
Haut(e) -- | Bas -- ° F
--% Risque de précip.
Hier
Haut(e) -- | Bas -- ° F
Precip. -- pouce
5:16 AM 8:09 PM
Lune gibbeuse croissante, 71% visible
Pression 30.15 pouce
Visibilité 10.0 Miles terrestres
Nuages Nuageux 2000 ft
indice de chaleur 74 ° F
Point de rosée 62 ° F
Humidité 73%
Précipitations 0.00 pouce
Profondeur de la couche neigeuse Non disponible.
UV 0 sur 12
Pollen 9.70 sur 12
Qualité de l'air Non disponible.
Flu Activity No Activity
METAR KPVD 272251Z 22013G23KT 10SM BKN020 22/16 A3015 RMK AO2 SLP209 T02170156

More Conditions Fewer Conditions

Pression 30.15 pouce
Visibilité 10.0 Miles terrestres
Nuages Nuageux 2000 ft
indice de chaleur 74 ° F
Point de rosée 62 ° F
Humidité 73%
Précipitations 0.00 pouce
Profondeur de la couche neigeuse Non disponible.
UV 0 sur 12
Pollen 9.70 sur 12
Qualité de l'air Non disponible.
Flu Activity No Activity
METAR KPVD 272251Z 22013G23KT 10SM BKN020 22/16 A3015 RMK AO2 SLP209 T02170156

More Conditions Fewer Conditions

10-Day Weather Forecast

Almanac

Astronomie

May. 27, 2015 Lever Coucher
Temps réel
Crépuscule civil
Crépuscule nautique
Crépuscule astronomique
Lune
Durée de lumière visible
Longueur du jour
Tomorrow will be .
, % of the Moon is Illuminated

Extrêmes aujourd'hui

State Highs State Lows

Community

WunderPhotos

Upload Photos

1,824,825 Photos téléchargées !

WunderBlogs® & News

Nearby

Qualité de l'air

  Qualité de l'air Indice de la qualité de l'air Polluant
Not available.

Épaisseur de neige

Station Depth Altitude

Activité sismique

Ville Distance Mag. Time & Date
Minimum magnitude displayed is 2.5.

Températures des eaux côtières

Lieu Température

Stations

Stations météo à proximité

Emplacement de la station Température Refroidissement éolien Point de rosée Humidité Vent Precip. Alt. Mise à jour Type